Mars Hill, Louisiana
Current Conditions -  °F | °C
As of 12:35 AM on Thursday 27 Nov 2014 (Local Time) from KIER Reporting Station
Clear Clear  
Wind Chill: 45°   Ceiling: Unl
Heat Index: 45°   Visibility: 10mi
Dew Point: 38°   Wind: 3mph
Humidity: 77%   Direction: 310°NW
Pressure: 30.33"   Gusts: NA
Location:  31.8476°N, 92.7651°W
Report Text: KIER 270635Z AUTO 31003KT 10SM CLR 07/04 A3033 RMK AO2 T00720035
Loading
Personal Weather Stations






























Interactive Weather Map New forecast layout! Learn more

10-Day Weather Forecast

Advertisements
Track Severe Weather on mobile